createdAt,value
2018-03-25T00:02:38.522Z,19.53
2018-03-25T00:05:41.668Z,18.27
2018-03-25T00:08:44.853Z,18.60
2018-03-25T00:11:48.041Z,17.70
2018-03-25T00:14:51.185Z,19.53
2018-03-25T00:17:54.349Z,22.43
2018-03-25T00:20:57.478Z,20.03
2018-03-25T00:24:00.617Z,18.03
2018-03-25T00:27:03.760Z,18.60
2018-03-25T00:30:06.907Z,18.37
2018-03-25T00:33:10.097Z,17.63
2018-03-25T00:36:13.238Z,18.90
2018-03-25T00:39:16.383Z,16.73
2018-03-25T00:42:19.528Z,18.73
2018-03-25T00:45:22.681Z,22.33
2018-03-25T00:48:25.808Z,20.43
2018-03-25T00:51:28.953Z,18.47
2018-03-25T00:54:32.138Z,18.63
2018-03-25T00:57:35.297Z,20.70
2018-03-25T01:00:38.444Z,18.63
2018-03-25T01:03:41.639Z,19.73
2018-03-25T01:06:44.798Z,17.70
2018-03-25T01:09:47.951Z,18.07
2018-03-25T01:16:21.406Z,16.93
2018-03-25T01:19:28.137Z,16.17
2018-03-25T01:22:31.397Z,16.53
2018-03-25T01:25:36.373Z,17.50
2018-03-25T01:28:39.945Z,18.87
2018-03-25T01:31:44.748Z,16.57
2018-03-25T01:34:47.997Z,18.57
2018-03-25T01:37:51.540Z,16.30
2018-03-25T01:40:55.019Z,17.93
2018-03-25T01:43:59.195Z,17.63
2018-03-25T01:47:02.685Z,14.93
2018-03-25T01:50:06.068Z,17.40
2018-03-25T01:53:09.313Z,17.47
2018-03-25T01:56:12.484Z,17.53
2018-03-25T01:59:17.036Z,17.97
2018-03-25T02:02:20.240Z,18.35
2018-03-25T02:05:23.645Z,15.08
2018-03-25T02:08:26.892Z,15.93
2018-03-25T02:11:31.456Z,15.38
2018-03-25T02:14:34.883Z,18.37
2018-03-25T02:17:38.082Z,16.97
2018-03-25T02:20:49.525Z,18.03
2018-03-25T02:23:53.981Z,18.23
2018-03-25T02:26:58.389Z,17.23
2018-03-25T02:30:01.661Z,16.95
2018-03-25T02:33:04.899Z,17.07
2018-03-25T02:36:08.120Z,14.97
2018-03-25T02:39:11.584Z,17.60
2018-03-25T02:42:14.970Z,21.77
2018-03-25T02:45:18.431Z,17.23
2018-03-25T02:48:21.894Z,17.30
2018-03-25T02:51:26.319Z,17.67
2018-03-25T02:54:29.518Z,17.23
2018-03-25T02:57:32.913Z,18.03
2018-03-25T03:00:38.148Z,19.63
2018-03-25T03:03:41.525Z,19.67
2018-03-25T03:06:44.948Z,19.53
2018-03-25T03:09:58.216Z,17.10
2018-03-25T03:13:01.391Z,17.03
2018-03-25T03:16:05.300Z,18.23
2018-03-25T03:19:08.560Z,20.10
2018-03-25T03:22:12.010Z,18.30
2018-03-25T03:25:15.429Z,18.07
2018-03-25T03:28:21.629Z,18.03
2018-03-25T03:31:24.825Z,17.77
2018-03-25T03:34:29.112Z,19.37
2018-03-25T03:37:32.589Z,18.53
2018-03-25T03:40:36.137Z,20.50
2018-03-25T03:43:39.399Z,18.67
2018-03-25T03:46:42.633Z,18.63
2018-03-25T03:49:48.036Z,19.03
2018-03-25T03:52:51.248Z,18.20
2018-03-25T03:55:54.448Z,20.90
2018-03-25T03:58:58.686Z,19.23
2018-03-25T04:02:03.108Z,18.90
2018-03-25T04:05:06.412Z,19.20
2018-03-25T04:08:10.018Z,19.00
2018-03-25T04:11:13.237Z,19.40
2018-03-25T04:14:17.482Z,16.93
2018-03-25T04:17:22.337Z,18.17
2018-03-25T04:20:26.664Z,19.33
2018-03-25T04:23:30.092Z,19.97
2018-03-25T04:26:34.318Z,21.53
2018-03-25T04:29:39.531Z,19.67
2018-03-25T04:32:43.983Z,19.97
2018-03-25T04:35:48.270Z,20.37
2018-03-25T04:38:51.488Z,19.60
2018-03-25T04:41:54.783Z,20.83
2018-03-25T04:44:59.531Z,20.37
2018-03-25T04:48:03.750Z,21.47
2018-03-25T04:51:08.002Z,19.77
2018-03-25T04:54:11.235Z,20.73
2018-03-25T04:57:14.465Z,22.17
2018-03-25T05:00:17.873Z,21.93
2018-03-25T05:03:21.305Z,21.70
2018-03-25T05:06:24.558Z,20.52
2018-03-25T05:09:27.792Z,19.45
2018-03-25T05:12:31.114Z,19.00
2018-03-25T05:15:35.892Z,20.65
2018-03-25T05:18:39.528Z,21.57
2018-03-25T05:21:44.436Z,20.32
2018-03-25T05:24:47.906Z,21.27
2018-03-25T05:27:51.119Z,20.50
2018-03-25T05:30:54.458Z,20.27
2018-03-25T05:33:57.708Z,22.55
2018-03-25T05:37:01.485Z,21.27
2018-03-25T05:40:06.001Z,23.50
2018-03-25T05:43:09.752Z,22.33
2018-03-25T05:46:13.465Z,20.10
2018-03-25T05:49:16.704Z,21.97
2018-03-25T05:52:19.933Z,19.27
2018-03-25T05:55:23.195Z,20.57
2018-03-25T05:58:26.649Z,23.93
2018-03-25T06:01:36.735Z,23.10
2018-03-25T06:04:58.901Z,18.30
2018-03-25T06:08:03.618Z,27.87
2018-03-25T06:11:07.062Z,22.30
2018-03-25T06:14:10.502Z,25.57
2018-03-25T06:17:14.872Z,26.47
2018-03-25T06:20:19.065Z,24.20
2018-03-25T06:23:36.664Z,25.43
2018-03-25T06:26:52.468Z,26.00
2018-03-25T06:29:55.824Z,23.07
2018-03-25T06:33:04.013Z,24.97
2018-03-25T06:36:08.301Z,21.80
2018-03-25T06:39:12.547Z,23.40
2018-03-25T06:42:17.052Z,25.43
2018-03-25T06:45:20.220Z,24.40
2018-03-25T06:48:23.688Z,24.83
2018-03-25T06:51:26.928Z,24.63
2018-03-25T06:54:31.122Z,24.30
2018-03-25T06:57:34.381Z,23.47
2018-03-25T07:00:38.206Z,26.25
2018-03-25T07:03:41.723Z,25.43
2018-03-25T07:06:51.832Z,23.12
2018-03-25T07:09:56.100Z,23.22
2018-03-25T07:12:59.517Z,25.17
2018-03-25T07:16:02.797Z,25.20
2018-03-25T07:19:07.285Z,26.80
2018-03-25T07:22:10.487Z,25.87
2018-03-25T07:25:13.787Z,28.17
2018-03-25T07:28:16.965Z,25.48
2018-03-25T07:31:21.176Z,26.45
2018-03-25T07:34:32.342Z,25.27
2018-03-25T07:37:35.990Z,26.87
2018-03-25T07:40:39.718Z,28.23
2018-03-25T07:43:43.017Z,26.00
2018-03-25T07:46:47.396Z,27.85
2018-03-25T07:49:50.759Z,28.92
2018-03-25T07:52:54.212Z,25.40
2018-03-25T07:55:57.606Z,27.50
2018-03-25T07:59:00.829Z,28.10
2018-03-25T08:02:05.171Z,29.98
2018-03-25T08:05:08.443Z,28.83
2018-03-25T08:08:15.805Z,26.90
2018-03-25T08:11:20.930Z,29.72
2018-03-25T08:14:24.274Z,27.85
2018-03-25T08:17:28.664Z,29.07
2018-03-25T08:20:31.938Z,26.10
2018-03-25T08:23:36.149Z,27.17
2018-03-25T08:26:39.671Z,27.20
2018-03-25T08:29:42.959Z,26.62
2018-03-25T08:32:46.310Z,28.30
2018-03-25T08:35:49.480Z,27.00
2018-03-25T08:38:53.815Z,30.43
2018-03-25T08:41:57.372Z,30.43
2018-03-25T08:45:08.122Z,28.83
2018-03-25T08:48:18.997Z,31.67
2018-03-25T08:51:22.263Z,34.20
2018-03-25T08:54:28.962Z,30.43
2018-03-25T08:57:32.144Z,28.03
2018-03-25T09:00:35.346Z,28.40
2018-03-25T09:03:38.550Z,30.37
2018-03-25T09:06:41.781Z,29.63
2018-03-25T09:09:44.956Z,28.67
2018-03-25T09:12:48.364Z,31.40
2018-03-25T09:15:51.552Z,29.63
2018-03-25T09:18:54.742Z,32.80
2018-03-25T09:21:58.217Z,30.70
2018-03-25T09:25:01.404Z,30.87
2018-03-25T09:28:04.662Z,32.50
2018-03-25T09:31:07.906Z,29.47
2018-03-25T09:34:11.065Z,32.10
2018-03-25T09:37:14.306Z,30.77
2018-03-25T09:40:17.436Z,31.47
2018-03-25T09:43:20.565Z,33.40
2018-03-25T09:46:23.787Z,31.20
2018-03-25T09:49:26.991Z,31.80
2018-03-25T09:52:30.217Z,32.00
2018-03-25T09:55:33.437Z,29.27
2018-03-25T09:58:36.687Z,27.60
2018-03-25T10:01:43.992Z,30.67
2018-03-25T10:04:47.288Z,29.70
2018-03-25T10:07:50.462Z,31.23
2018-03-25T10:10:53.643Z,30.07
2018-03-25T10:13:56.824Z,31.37
2018-03-25T10:16:59.961Z,34.10
2018-03-25T10:20:03.213Z,30.27
2018-03-25T10:23:06.379Z,31.37
2018-03-25T10:26:09.637Z,32.90
2018-03-25T10:29:12.821Z,30.07
2018-03-25T10:32:16.012Z,30.60
2018-03-25T10:35:19.247Z,29.37
2018-03-25T10:38:22.442Z,29.03
2018-03-25T10:41:25.645Z,28.13
2018-03-25T10:44:28.862Z,30.77
2018-03-25T10:47:32.022Z,28.77
2018-03-25T10:50:35.233Z,31.37
2018-03-25T10:53:38.407Z,30.93
2018-03-25T10:56:41.580Z,31.77
2018-03-25T10:59:44.764Z,32.53
2018-03-25T11:02:47.937Z,29.97
2018-03-25T11:05:51.278Z,31.03
2018-03-25T11:08:54.443Z,34.17
2018-03-25T11:11:57.634Z,32.77
2018-03-25T11:15:00.778Z,29.93
2018-03-25T11:18:03.946Z,33.03
2018-03-25T11:21:07.118Z,29.67
2018-03-25T11:24:10.333Z,32.93
2018-03-25T11:27:13.730Z,32.03
2018-03-25T11:30:16.952Z,30.93
2018-03-25T11:33:20.254Z,32.63
2018-03-25T11:36:23.484Z,34.07
2018-03-25T11:39:26.720Z,30.07
2018-03-25T11:42:30.094Z,29.80
2018-03-25T11:45:33.535Z,32.67
2018-03-25T11:48:36.786Z,31.13
2018-03-25T11:51:40.058Z,29.47
2018-03-25T11:54:43.376Z,32.30
2018-03-25T11:57:46.624Z,31.90
2018-03-25T12:00:49.773Z,32.23
2018-03-25T12:03:53.106Z,31.00
2018-03-25T12:06:56.406Z,32.20
2018-03-25T12:09:59.667Z,29.00
2018-03-25T12:13:01.976Z,30.37
2018-03-25T12:16:05.165Z,31.83
2018-03-25T12:19:08.356Z,29.93
2018-03-25T12:22:11.615Z,30.33
2018-03-25T12:25:14.855Z,29.47
2018-03-25T12:28:18.128Z,31.13
2018-03-25T12:31:21.302Z,27.50
2018-03-25T12:34:24.532Z,31.10
2018-03-25T12:37:27.778Z,28.63
2018-03-25T12:40:32.739Z,27.77
2018-03-25T12:43:35.922Z,26.97
2018-03-25T12:46:39.092Z,30.60
2018-03-25T12:49:42.273Z,29.27
2018-03-25T12:52:45.432Z,29.27
2018-03-25T12:55:48.605Z,30.43
2018-03-25T12:58:51.933Z,27.60
2018-03-25T13:01:55.054Z,26.80
2018-03-25T13:04:58.216Z,27.87
2018-03-25T13:08:01.429Z,27.67
2018-03-25T13:11:04.663Z,29.33
2018-03-25T13:14:07.798Z,31.50
2018-03-25T13:17:10.954Z,30.00
2018-03-25T13:20:14.165Z,31.00
2018-03-25T13:23:17.286Z,31.33
2018-03-25T13:26:20.475Z,30.90
2018-03-25T13:29:23.618Z,28.00
2018-03-25T13:32:26.816Z,29.03
2018-03-25T13:35:30.024Z,29.40
2018-03-25T13:38:33.200Z,28.03
2018-03-25T13:41:36.434Z,26.83
2018-03-25T13:44:39.625Z,28.27
2018-03-25T13:47:42.784Z,19.80
2018-03-25T13:50:45.982Z,22.93
2018-03-25T13:53:49.138Z,13.47
2018-03-25T13:56:52.304Z,21.93
2018-03-25T13:59:55.476Z,26.30
2018-03-25T14:04:01.405Z,21.00
2018-03-25T14:07:04.635Z,21.63
2018-03-25T14:10:07.901Z,15.30
2018-03-25T14:13:11.087Z,17.80
2018-03-25T14:16:14.292Z,13.87
2018-03-25T14:19:19.247Z,13.40
2018-03-25T14:22:23.387Z,12.60
2018-03-25T14:26:29.646Z,11.97
2018-03-25T14:29:32.807Z,12.53
2018-03-25T14:32:35.951Z,15.60
2018-03-25T14:35:39.275Z,13.80
2018-03-25T14:38:42.438Z,13.20
2018-03-25T14:41:45.683Z,11.67
2018-03-25T14:44:48.917Z,10.73
2018-03-25T14:47:52.223Z,15.20
2018-03-25T14:50:55.435Z,15.97
2018-03-25T14:53:58.680Z,16.07
2018-03-25T14:57:01.934Z,11.60
2018-03-25T15:00:05.299Z,13.83
2018-03-25T15:03:08.475Z,12.17
2018-03-25T15:06:11.705Z,13.80
2018-03-25T15:09:14.937Z,15.07
2018-03-25T15:12:18.531Z,13.20
2018-03-25T15:15:21.667Z,12.37
2018-03-25T15:18:25.166Z,13.33
2018-03-25T15:21:28.383Z,11.47
2018-03-25T15:24:31.643Z,11.93
2018-03-25T15:27:34.988Z,10.47
2018-03-25T15:30:38.184Z,9.90
2018-03-25T15:33:41.469Z,9.80
2018-03-25T15:36:44.746Z,15.77
2018-03-25T15:39:47.962Z,16.03
2018-03-25T15:42:51.261Z,17.67
2018-03-25T15:45:54.560Z,17.17
2018-03-25T15:48:58.788Z,19.73
2018-03-25T15:52:02.141Z,20.20
2018-03-25T15:55:05.978Z,19.80
2018-03-25T15:58:09.132Z,18.13
2018-03-25T16:01:12.351Z,20.50
2018-03-25T16:04:16.595Z,20.07
2018-03-25T16:07:21.086Z,19.00
2018-03-25T16:10:24.401Z,15.90
2018-03-25T16:13:27.608Z,18.77
2018-03-25T16:16:30.832Z,17.73
2018-03-25T16:19:34.028Z,19.90
2018-03-25T16:22:37.272Z,17.60
2018-03-25T16:25:40.668Z,16.93
2018-03-25T16:28:43.909Z,19.97
2018-03-25T16:31:47.120Z,19.70
2018-03-25T16:34:55.038Z,22.43
2018-03-25T16:37:58.450Z,22.70
2018-03-25T16:41:01.657Z,22.93
2018-03-25T16:44:04.887Z,19.47
2018-03-25T16:47:08.134Z,21.83
2018-03-25T16:50:11.358Z,21.80
2018-03-25T16:53:14.574Z,21.70
2018-03-25T16:56:17.885Z,25.27
2018-03-25T16:59:21.262Z,21.97
2018-03-25T17:02:25.048Z,20.77
2018-03-25T17:05:28.896Z,21.03
2018-03-25T17:08:32.459Z,22.77
2018-03-25T17:11:36.954Z,22.17
2018-03-25T17:14:40.233Z,22.47
2018-03-25T17:17:43.489Z,26.47
2018-03-25T17:20:46.626Z,27.10
2018-03-25T17:23:49.804Z,24.93
2018-03-25T17:26:53.178Z,25.37
2018-03-25T17:29:56.325Z,24.93
2018-03-25T17:32:59.489Z,24.73
2018-03-25T17:36:02.606Z,25.33
2018-03-25T17:39:06.189Z,23.37
2018-03-25T17:42:09.403Z,22.20
2018-03-25T17:45:12.619Z,24.00
2018-03-25T17:48:15.888Z,25.50
2018-03-25T17:51:19.082Z,25.17
2018-03-25T17:54:22.318Z,24.17
2018-03-25T17:57:25.479Z,27.67
2018-03-25T18:00:28.626Z,24.60
2018-03-25T18:03:31.853Z,25.00
2018-03-25T18:06:35.047Z,25.77
2018-03-25T18:09:38.378Z,24.33
2018-03-25T18:12:41.639Z,20.47
2018-03-25T18:15:44.808Z,24.80
2018-03-25T18:18:48.040Z,21.53
2018-03-25T18:21:51.231Z,25.93
2018-03-25T18:24:54.431Z,19.47
2018-03-25T18:27:57.743Z,22.63
2018-03-25T18:31:01.119Z,19.87
2018-03-25T18:34:04.334Z,22.87
2018-03-25T18:37:07.631Z,24.17
2018-03-25T18:40:10.794Z,22.70
2018-03-25T18:43:13.993Z,22.13
2018-03-25T18:46:17.275Z,25.73
2018-03-25T18:49:20.458Z,30.97
2018-03-25T18:52:23.741Z,29.03
2018-03-25T18:55:26.906Z,27.13
2018-03-25T18:58:30.292Z,29.53
2018-03-25T19:01:33.461Z,27.83
2018-03-25T19:04:36.675Z,28.87
2018-03-25T19:07:39.878Z,25.87
2018-03-25T19:10:43.079Z,23.37
2018-03-25T19:13:46.331Z,27.57
2018-03-25T19:16:49.541Z,25.03
2018-03-25T19:19:52.746Z,30.33
2018-03-25T19:22:55.981Z,27.53
2018-03-25T19:25:59.238Z,24.30
2018-03-25T19:29:02.374Z,22.53
2018-03-25T19:32:05.583Z,23.13
2018-03-25T19:35:08.748Z,24.13
2018-03-25T19:38:11.979Z,22.33
2018-03-25T19:41:15.184Z,22.67
2018-03-25T19:44:18.429Z,20.33
2018-03-25T19:47:21.631Z,20.77
2018-03-25T19:50:24.829Z,20.67
2018-03-25T19:53:28.138Z,21.37
2018-03-25T19:56:31.334Z,19.20
2018-03-25T19:59:34.476Z,21.73
2018-03-25T20:02:37.658Z,20.27
2018-03-25T20:05:40.949Z,21.23
2018-03-25T20:08:44.130Z,20.77
2018-03-25T20:11:47.312Z,21.43
2018-03-25T20:14:50.487Z,18.83
2018-03-25T20:17:53.639Z,20.33
2018-03-25T20:20:56.830Z,19.90
2018-03-25T20:23:59.959Z,22.30
2018-03-25T20:27:03.160Z,24.23
2018-03-25T20:30:06.319Z,24.10
2018-03-25T20:33:09.503Z,21.00
2018-03-25T20:36:12.826Z,23.93
2018-03-25T20:39:15.971Z,20.83
2018-03-25T20:42:19.094Z,18.80
2018-03-25T20:45:22.228Z,19.00
2018-03-25T20:48:25.349Z,21.43
2018-03-25T20:51:28.529Z,20.07
2018-03-25T20:54:31.657Z,25.20
2018-03-25T20:57:35.010Z,22.87
2018-03-25T21:00:38.137Z,26.03
2018-03-25T21:03:41.366Z,21.37
2018-03-25T21:06:45.272Z,25.03
2018-03-25T21:09:48.480Z,28.73
2018-03-25T21:12:51.615Z,28.20
2018-03-25T21:15:54.746Z,31.63
2018-03-25T21:18:58.200Z,27.07
2018-03-25T21:22:01.346Z,30.40
2018-03-25T21:25:04.481Z,25.47
2018-03-25T21:28:07.610Z,32.03
2018-03-25T21:31:10.798Z,20.97
2018-03-25T21:34:13.900Z,20.07
2018-03-25T21:37:17.052Z,24.43
2018-03-25T21:40:20.233Z,24.83
2018-03-25T21:43:23.380Z,23.93
2018-03-25T21:46:26.546Z,24.27
2018-03-25T21:49:29.851Z,25.50
2018-03-25T21:52:33.862Z,22.50
2018-03-25T21:55:37.000Z,21.40
2018-03-25T21:58:40.125Z,22.00
2018-03-25T22:01:43.289Z,27.90
2018-03-25T22:04:46.413Z,23.13
2018-03-25T22:07:49.533Z,24.07
2018-03-25T22:10:52.711Z,25.27
2018-03-25T22:13:55.829Z,23.67
2018-03-25T22:16:58.957Z,28.00
2018-03-25T22:20:02.103Z,30.03
2018-03-25T22:23:05.298Z,26.47
2018-03-25T22:26:08.494Z,22.87
2018-03-25T22:29:11.650Z,22.40
2018-03-25T22:32:14.916Z,26.77
2018-03-25T22:35:18.020Z,23.97
2018-03-25T22:38:21.150Z,24.33
2018-03-25T22:41:24.314Z,23.03
2018-03-25T22:44:27.475Z,26.27
2018-03-25T22:47:30.647Z,24.23
2018-03-25T22:50:33.772Z,30.27
2018-03-25T22:53:36.914Z,25.17
2018-03-25T22:56:40.055Z,22.43
2018-03-25T22:59:43.244Z,22.13
2018-03-25T23:02:46.322Z,25.40
2018-03-25T23:05:49.511Z,26.17
2018-03-25T23:08:52.657Z,23.57
2018-03-25T23:11:55.810Z,24.13
2018-03-25T23:14:58.982Z,30.13
2018-03-25T23:18:02.136Z,23.20
2018-03-25T23:21:05.357Z,21.67
2018-03-25T23:24:08.673Z,22.73
2018-03-25T23:27:11.804Z,22.10
2018-03-25T23:30:14.956Z,22.57
2018-03-25T23:33:18.121Z,25.23
2018-03-25T23:36:21.264Z,23.00
2018-03-25T23:39:24.429Z,26.50
2018-03-25T23:42:27.566Z,25.03
2018-03-25T23:45:30.736Z,22.13
2018-03-25T23:48:33.859Z,22.03
2018-03-25T23:51:37.024Z,21.37
2018-03-25T23:54:40.186Z,27.23
2018-03-25T23:57:43.393Z,21.73
